createdAt,value
2022-08-25T00:02:56.661Z,13.60
2022-08-25T00:06:00.469Z,14.60
2022-08-25T00:09:06.035Z,22.80
2022-08-25T00:12:08.802Z,16.90
2022-08-25T00:15:11.267Z,16.70
2022-08-25T00:18:19.941Z,17.60
2022-08-25T00:21:22.630Z,16.00
2022-08-25T00:24:25.370Z,17.10
2022-08-25T00:27:28.253Z,14.40
2022-08-25T00:30:30.579Z,19.50
2022-08-25T00:33:32.583Z,16.50
2022-08-25T00:36:34.530Z,21.30
2022-08-25T00:39:37.617Z,20.50
2022-08-25T00:42:40.370Z,16.90
2022-08-25T00:45:42.314Z,22.80
2022-08-25T00:48:45.931Z,19.30
2022-08-25T00:51:54.880Z,21.30
2022-08-25T00:55:08.172Z,18.80
2022-08-25T00:58:16.963Z,21.90
2022-08-25T01:01:18.985Z,15.60
2022-08-25T01:04:21.306Z,15.70
2022-08-25T01:07:24.149Z,22.00
2022-08-25T01:10:26.653Z,14.30
2022-08-25T01:13:38.904Z,16.90
2022-08-25T01:16:43.399Z,34.00
2022-08-25T01:19:45.269Z,17.30
2022-08-25T01:22:55.105Z,19.70
2022-08-25T01:26:04.224Z,23.80
2022-08-25T01:29:25.522Z,15.50
2022-08-25T01:32:27.564Z,15.90
2022-08-25T01:35:29.610Z,23.00
2022-08-25T01:38:31.592Z,29.20
2022-08-25T01:41:59.119Z,19.40
2022-08-25T01:45:01.057Z,44.10
2022-08-25T01:48:04.013Z,18.70
2022-08-25T01:51:06.267Z,29.50
2022-08-25T01:54:08.228Z,19.50
2022-08-25T01:57:10.129Z,24.10
2022-08-25T02:00:14.540Z,22.50
2022-08-25T02:03:19.113Z,20.30
2022-08-25T02:06:33.114Z,22.50
2022-08-25T02:09:36.558Z,22.10
2022-08-25T02:12:38.410Z,20.60
2022-08-25T02:15:43.190Z,26.10
2022-08-25T02:18:45.714Z,35.60
2022-08-25T02:21:47.921Z,20.30
2022-08-25T02:24:50.205Z,44.50
2022-08-25T02:27:51.954Z,17.90
2022-08-25T02:30:58.537Z,42.10
2022-08-25T02:34:04.331Z,22.70
2022-08-25T02:37:06.295Z,28.50
2022-08-25T02:40:09.568Z,17.70
2022-08-25T02:43:11.549Z,16.50
2022-08-25T02:46:13.579Z,18.00
2022-08-25T02:49:15.563Z,21.40
2022-08-25T02:52:17.685Z,24.00
2022-08-25T02:55:19.588Z,22.60
2022-08-25T02:58:21.997Z,28.20
2022-08-25T03:01:28.694Z,27.40
2022-08-25T03:04:32.296Z,22.50
2022-08-25T03:07:35.630Z,26.50
2022-08-25T03:10:37.717Z,24.40
2022-08-25T03:13:40.116Z,27.40
2022-08-25T03:16:42.936Z,28.00
2022-08-25T03:19:48.361Z,27.10
2022-08-25T03:22:50.621Z,21.30
2022-08-25T03:26:13.863Z,22.80
2022-08-25T03:29:15.673Z,27.90
2022-08-25T03:32:18.104Z,22.50
2022-08-25T03:35:20.185Z,22.10
2022-08-25T03:38:23.660Z,24.90
2022-08-25T03:41:32.730Z,24.00
2022-08-25T03:44:34.592Z,24.90
2022-08-25T03:47:36.420Z,27.80
2022-08-25T03:50:44.625Z,68.80
2022-08-25T03:53:54.436Z,65.20
2022-08-25T03:56:56.236Z,66.10
2022-08-25T03:59:57.982Z,30.80
2022-08-25T04:02:59.749Z,25.60
2022-08-25T04:06:03.542Z,37.90
2022-08-25T04:09:05.469Z,30.10
2022-08-25T04:12:07.461Z,21.10
2022-08-25T04:15:09.822Z,16.80
2022-08-25T04:18:13.476Z,18.20
2022-08-25T04:21:15.728Z,16.30
2022-08-25T04:24:17.665Z,14.40
2022-08-25T04:27:20.198Z,20.80
2022-08-25T04:30:22.100Z,18.10
2022-08-25T04:33:23.897Z,21.20
2022-08-25T04:36:25.654Z,20.30
2022-08-25T04:39:27.398Z,20.20
2022-08-25T04:42:29.255Z,23.20
2022-08-25T04:45:31.242Z,26.40
2022-08-25T04:48:33.737Z,25.10
2022-08-25T04:51:39.776Z,24.50
2022-08-25T04:54:42.215Z,23.70
2022-08-25T04:57:44.222Z,25.60
2022-08-25T05:00:46.928Z,24.80
2022-08-25T05:03:54.170Z,24.40
2022-08-25T05:06:56.961Z,24.70
2022-08-25T05:09:58.905Z,24.00
2022-08-25T05:13:01.298Z,28.20
2022-08-25T05:16:04.203Z,27.10
2022-08-25T05:19:07.372Z,27.20
2022-08-25T05:22:09.170Z,29.70
2022-08-25T05:25:11.070Z,29.20
2022-08-25T05:28:13.378Z,29.70
2022-08-25T05:31:15.400Z,29.10
2022-08-25T05:34:19.121Z,29.20
2022-08-25T05:37:20.921Z,30.50
2022-08-25T05:40:23.721Z,27.70
2022-08-25T05:43:25.509Z,35.10
2022-08-25T05:46:27.471Z,29.90
2022-08-25T05:49:33.631Z,33.40
2022-08-25T05:52:36.321Z,32.20
2022-08-25T05:55:38.146Z,28.00
2022-08-25T05:58:40.934Z,30.40
2022-08-25T06:02:02.213Z,29.00
2022-08-25T06:05:05.134Z,31.00
2022-08-25T06:08:07.305Z,29.80
2022-08-25T06:11:09.469Z,33.60
2022-08-25T06:14:11.784Z,28.10
2022-08-25T06:17:13.709Z,32.80
2022-08-25T06:20:18.796Z,26.90
2022-08-25T06:23:24.070Z,34.20
2022-08-25T06:26:26.478Z,28.20
2022-08-25T06:29:28.381Z,29.00
2022-08-25T06:32:37.860Z,31.60
2022-08-25T06:35:43.889Z,26.10
2022-08-25T06:38:47.048Z,28.20
2022-08-25T06:41:53.816Z,29.20
2022-08-25T06:44:55.590Z,32.80
2022-08-25T06:47:59.401Z,28.50
2022-08-25T06:51:06.107Z,30.40
2022-08-25T06:54:10.336Z,31.70
2022-08-25T06:57:12.014Z,29.50
2022-08-25T07:00:14.528Z,28.00
2022-08-25T07:03:16.789Z,32.30
2022-08-25T07:06:18.820Z,31.00
2022-08-25T07:09:20.819Z,30.10
2022-08-25T07:12:24.750Z,33.60
2022-08-25T07:15:27.732Z,29.80
2022-08-25T07:18:29.887Z,30.40
2022-08-25T07:21:35.648Z,30.70
2022-08-25T07:24:37.786Z,31.00
2022-08-25T07:27:41.260Z,35.10
2022-08-25T07:30:45.147Z,28.90
2022-08-25T07:34:12.408Z,30.90
2022-08-25T07:37:32.300Z,33.50
2022-08-25T07:40:43.050Z,32.60
2022-08-25T07:43:45.012Z,30.20
2022-08-25T07:46:46.907Z,32.30
2022-08-25T07:49:48.723Z,33.70
2022-08-25T07:53:05.392Z,32.30
2022-08-25T07:56:12.390Z,28.70
2022-08-25T07:59:14.421Z,32.50
2022-08-25T08:02:18.975Z,29.90
2022-08-25T08:05:24.005Z,35.20
2022-08-25T08:08:26.210Z,29.60
2022-08-25T08:11:45.120Z,33.40
2022-08-25T08:14:53.902Z,31.10
2022-08-25T08:17:56.509Z,31.40
2022-08-25T08:21:00.077Z,35.00
2022-08-25T08:24:05.045Z,31.70
2022-08-25T08:27:13.768Z,30.30
2022-08-25T08:30:15.627Z,31.50
2022-08-25T08:33:17.355Z,31.60
2022-08-25T08:36:19.685Z,36.70
2022-08-25T08:39:22.606Z,30.60
2022-08-25T08:43:18.563Z,32.70
2022-08-25T08:46:22.666Z,35.00
2022-08-25T08:49:35.256Z,33.00
2022-08-25T08:52:53.927Z,36.20
2022-08-25T08:55:58.009Z,31.20
2022-08-25T08:59:06.854Z,34.20
2022-08-25T09:02:38.858Z,32.80
2022-08-25T09:05:47.254Z,30.40
2022-08-25T09:08:49.228Z,30.00
2022-08-25T09:12:17.197Z,31.50
2022-08-25T09:16:06.010Z,35.60
2022-08-25T09:19:27.332Z,33.70
2022-08-25T09:23:20.201Z,31.30
2022-08-25T09:26:54.773Z,32.80
2022-08-25T09:30:05.322Z,36.50
2022-08-25T09:33:08.168Z,31.30
2022-08-25T09:36:10.203Z,39.60
2022-08-25T09:39:12.378Z,35.70
2022-08-25T09:42:14.417Z,34.40
2022-08-25T09:45:16.460Z,31.70
2022-08-25T09:48:40.744Z,32.60
2022-08-25T09:51:44.425Z,33.00
2022-08-25T09:54:46.807Z,34.60
2022-08-25T09:57:52.918Z,37.00
2022-08-25T10:01:03.893Z,32.90
2022-08-25T10:04:07.038Z,28.40
2022-08-25T10:07:26.736Z,34.90
2022-08-25T10:10:32.722Z,30.80
2022-08-25T10:13:44.366Z,30.50
2022-08-25T10:16:47.655Z,34.10
2022-08-25T10:19:49.933Z,33.20
2022-08-25T10:23:09.937Z,37.90
2022-08-25T10:26:53.546Z,36.20
2022-08-25T10:30:13.478Z,37.20
2022-08-25T10:33:47.633Z,32.30
2022-08-25T10:37:37.777Z,31.70
2022-08-25T10:40:53.349Z,27.80
2022-08-25T10:44:51.114Z,32.10
2022-08-25T10:48:08.242Z,35.20
2022-08-25T10:51:39.473Z,31.50
2022-08-25T10:55:05.382Z,34.80
2022-08-25T10:59:06.435Z,33.50
2022-08-25T11:02:27.308Z,40.10
2022-08-25T11:05:36.991Z,31.80
2022-08-25T11:08:48.941Z,32.30
2022-08-25T11:11:58.218Z,32.50
2022-08-25T11:15:04.161Z,35.50
2022-08-25T11:18:14.539Z,34.90
2022-08-25T11:21:22.260Z,30.70
2022-08-25T11:24:45.369Z,27.70
2022-08-25T11:28:18.378Z,32.00
2022-08-25T11:31:21.822Z,33.90
2022-08-25T11:34:26.533Z,36.00
2022-08-25T11:37:32.359Z,33.20
2022-08-25T11:40:58.943Z,34.80
2022-08-25T11:44:18.975Z,40.40
2022-08-25T11:47:40.085Z,35.70
2022-08-25T11:51:33.755Z,28.80
2022-08-25T11:54:44.742Z,32.10
2022-08-25T11:57:53.217Z,35.60
2022-08-25T12:00:58.535Z,30.50
2022-08-25T12:04:14.858Z,32.90
2022-08-25T12:07:23.765Z,32.70
2022-08-25T12:10:26.354Z,36.30
2022-08-25T12:13:44.997Z,32.80
2022-08-25T12:16:55.772Z,31.30
2022-08-25T12:19:59.735Z,31.70
2022-08-25T12:23:02.482Z,31.00
2022-08-25T12:26:11.062Z,30.50
2022-08-25T12:29:39.349Z,35.00
2022-08-25T12:33:00.712Z,37.80
2022-08-25T12:36:06.547Z,36.60
2022-08-25T12:39:24.654Z,35.30
2022-08-25T12:42:35.549Z,36.50
2022-08-25T12:45:49.018Z,34.60
2022-08-25T12:49:04.826Z,31.10
2022-08-25T12:52:17.164Z,34.10
2022-08-25T12:55:21.102Z,32.60
2022-08-25T12:58:31.215Z,37.60
2022-08-25T13:02:22.164Z,38.30
2022-08-25T13:05:33.577Z,32.30
2022-08-25T13:08:58.113Z,34.90
2022-08-25T13:12:14.261Z,35.30
2022-08-25T13:15:37.512Z,40.70
2022-08-25T13:18:39.784Z,32.60
2022-08-25T13:21:43.324Z,37.30
2022-08-25T13:24:47.589Z,36.40
2022-08-25T13:27:55.880Z,44.50
2022-08-25T13:31:19.065Z,35.70
2022-08-25T13:34:24.245Z,36.80
2022-08-25T13:37:36.414Z,34.30
2022-08-25T13:40:38.463Z,45.50
2022-08-25T13:43:41.026Z,39.50
2022-08-25T13:46:43.112Z,42.10
2022-08-25T13:49:47.387Z,43.20
2022-08-25T13:53:06.523Z,35.30
2022-08-25T13:56:08.734Z,34.60
2022-08-25T13:59:25.243Z,38.80
2022-08-25T14:02:49.873Z,37.60
2022-08-25T14:06:05.418Z,32.30
2022-08-25T14:09:16.551Z,33.90
2022-08-25T14:12:33.751Z,30.30
2022-08-25T14:15:35.744Z,35.20
2022-08-25T14:18:37.933Z,39.00
2022-08-25T14:21:41.033Z,36.60
2022-08-25T14:24:44.014Z,37.60
2022-08-25T14:28:10.725Z,45.60
2022-08-25T14:31:16.644Z,30.50
2022-08-25T14:34:22.407Z,39.10
2022-08-25T14:37:25.855Z,33.10
2022-08-25T14:40:32.048Z,31.50
2022-08-25T14:43:37.186Z,34.60
2022-08-25T14:46:46.595Z,34.00
2022-08-25T14:49:48.921Z,39.00
2022-08-25T14:52:51.943Z,35.60
2022-08-25T14:55:58.848Z,36.40
2022-08-25T14:59:01.261Z,37.60
2022-08-25T15:02:03.066Z,31.40
2022-08-25T15:05:07.210Z,35.70
2022-08-25T15:08:33.040Z,33.10
2022-08-25T15:11:36.262Z,34.10
2022-08-25T15:14:40.841Z,32.40
2022-08-25T15:17:44.793Z,29.60
2022-08-25T15:20:46.504Z,29.90
2022-08-25T15:23:49.577Z,31.40
2022-08-25T15:26:58.651Z,37.20
2022-08-25T15:30:00.420Z,28.20
2022-08-25T15:33:02.319Z,35.60
2022-08-25T15:36:04.079Z,36.40
2022-08-25T15:39:08.025Z,34.10
2022-08-25T15:42:12.270Z,33.20
2022-08-25T15:45:14.558Z,32.00
2022-08-25T15:48:16.331Z,37.90
2022-08-25T15:51:19.065Z,34.80
2022-08-25T15:54:26.670Z,32.20
2022-08-25T15:57:28.979Z,32.70
2022-08-25T16:00:31.816Z,33.40
2022-08-25T16:03:34.549Z,33.30
2022-08-25T16:06:36.879Z,31.80
2022-08-25T16:09:38.735Z,32.50
2022-08-25T16:12:42.666Z,30.10
2022-08-25T16:15:54.211Z,28.20
2022-08-25T16:18:57.083Z,30.20
2022-08-25T16:21:59.833Z,30.10
2022-08-25T16:25:02.692Z,29.90
2022-08-25T16:28:04.452Z,30.50
2022-08-25T16:31:08.718Z,29.20
2022-08-25T16:34:10.773Z,40.10
2022-08-25T16:37:13.785Z,33.00
2022-08-25T16:40:18.651Z,34.60
2022-08-25T16:43:20.412Z,34.50
2022-08-25T16:46:23.801Z,38.30
2022-08-25T16:49:25.881Z,35.60
2022-08-25T16:53:01.393Z,44.10
2022-08-25T16:56:06.591Z,39.80
2022-08-25T16:59:12.262Z,31.00
2022-08-25T17:02:14.518Z,32.00
2022-08-25T17:05:16.413Z,34.30
2022-08-25T17:08:29.356Z,30.70
2022-08-25T17:11:40.214Z,31.50
2022-08-25T17:17:44.125Z,34.60
2022-08-25T17:20:48.682Z,31.20
2022-08-25T17:23:55.524Z,31.30
2022-08-25T17:26:57.212Z,33.10
2022-08-25T17:29:59.392Z,30.30
2022-08-25T17:33:01.477Z,28.80
2022-08-25T17:36:04.845Z,33.60
2022-08-25T17:39:07.820Z,34.70
2022-08-25T17:42:09.550Z,34.50
2022-08-25T17:45:11.229Z,35.50
2022-08-25T17:48:14.025Z,33.80
2022-08-25T17:51:16.310Z,32.70
2022-08-25T17:54:18.164Z,33.90
2022-08-25T17:57:20.048Z,36.20
2022-08-25T18:00:23.909Z,36.40
2022-08-25T18:03:26.410Z,30.00
2022-08-25T18:06:31.122Z,31.50
2022-08-25T18:09:33.221Z,37.80
2022-08-25T18:12:35.833Z,28.80
2022-08-25T18:15:42.610Z,33.20
2022-08-25T18:18:44.930Z,30.90
2022-08-25T18:21:46.794Z,33.20
2022-08-25T18:24:48.496Z,31.60
2022-08-25T18:27:50.713Z,33.70
2022-08-25T18:30:52.633Z,36.20
2022-08-25T18:33:54.877Z,36.10
2022-08-25T18:36:56.641Z,37.10
2022-08-25T18:40:17.526Z,33.60
2022-08-25T18:43:19.648Z,38.60
2022-08-25T18:46:22.693Z,32.10
2022-08-25T18:49:26.892Z,30.80
2022-08-25T18:52:30.914Z,36.90
2022-08-25T18:55:33.562Z,39.60
2022-08-25T18:58:36.056Z,37.40
2022-08-25T19:01:38.085Z,33.40
2022-08-25T19:04:40.302Z,33.20
2022-08-25T19:07:44.073Z,33.40
2022-08-25T19:10:51.531Z,36.50
2022-08-25T19:13:53.474Z,33.90
2022-08-25T19:16:58.007Z,32.50
2022-08-25T19:20:00.338Z,29.60
2022-08-25T19:23:03.648Z,28.70
2022-08-25T19:26:17.172Z,27.70
2022-08-25T19:29:20.217Z,30.00
2022-08-25T19:32:22.194Z,29.70
2022-08-25T19:35:41.248Z,32.20
2022-08-25T19:38:44.707Z,30.90
2022-08-25T19:41:46.970Z,32.20
2022-08-25T19:44:52.726Z,31.80
2022-08-25T19:47:54.612Z,30.30
2022-08-25T19:50:56.515Z,25.40
2022-08-25T19:54:01.586Z,32.50
2022-08-25T19:57:07.873Z,37.90
2022-08-25T20:00:19.551Z,45.90
2022-08-25T20:03:21.687Z,39.70
2022-08-25T20:06:24.122Z,30.40
2022-08-25T20:09:38.829Z,27.30
2022-08-25T20:12:45.298Z,29.50
2022-08-25T20:15:47.279Z,33.40
2022-08-25T20:18:49.574Z,28.20
2022-08-25T20:21:51.434Z,30.50
2022-08-25T20:25:01.834Z,33.00
2022-08-25T20:28:04.415Z,29.60
2022-08-25T20:31:06.488Z,27.00
2022-08-25T20:34:08.989Z,28.30
2022-08-25T20:37:10.876Z,26.20
2022-08-25T20:40:14.953Z,28.40
2022-08-25T20:43:17.419Z,32.80
2022-08-25T20:46:19.648Z,35.60
2022-08-25T20:49:22.156Z,28.60
2022-08-25T20:52:23.986Z,27.30
2022-08-25T20:55:26.605Z,28.40
2022-08-25T20:58:28.674Z,30.90
2022-08-25T21:01:41.376Z,35.00
2022-08-25T21:04:49.014Z,26.50
2022-08-25T21:07:52.250Z,27.00
2022-08-25T21:10:54.213Z,26.90
2022-08-25T21:13:57.730Z,30.40
2022-08-25T21:16:59.619Z,28.10
2022-08-25T21:20:02.508Z,28.90
2022-08-25T21:23:04.328Z,29.10
2022-08-25T21:26:13.860Z,28.00
2022-08-25T21:29:16.644Z,28.20
2022-08-25T21:32:19.542Z,30.40
2022-08-25T21:35:23.576Z,29.40
2022-08-25T21:38:28.575Z,28.20
2022-08-25T21:41:33.069Z,30.50
2022-08-25T21:44:34.804Z,30.70
2022-08-25T21:47:42.578Z,31.90
2022-08-25T21:50:44.749Z,30.10
2022-08-25T21:53:47.705Z,29.00
2022-08-25T21:56:52.435Z,31.70
2022-08-25T21:59:54.993Z,34.40
2022-08-25T22:02:56.718Z,27.00
2022-08-25T22:06:02.506Z,23.40
2022-08-25T22:09:07.747Z,27.90
2022-08-25T22:12:10.486Z,30.30
2022-08-25T22:15:13.620Z,25.80
2022-08-25T22:18:15.786Z,30.50
2022-08-25T22:21:19.677Z,24.40
2022-08-25T22:24:22.250Z,26.00
2022-08-25T22:27:24.273Z,30.20
2022-08-25T22:30:29.367Z,27.10
2022-08-25T22:33:31.457Z,24.00
2022-08-25T22:36:36.375Z,26.00
2022-08-25T22:39:40.211Z,29.50
2022-08-25T22:42:46.093Z,29.20
2022-08-25T22:45:50.304Z,27.60
2022-08-25T22:48:56.276Z,29.80
2022-08-25T22:51:57.990Z,28.60
2022-08-25T22:55:00.260Z,25.80
2022-08-25T22:58:02.109Z,27.50
2022-08-25T23:01:05.498Z,27.30
2022-08-25T23:04:07.813Z,27.80
2022-08-25T23:07:29.941Z,28.80
2022-08-25T23:10:32.711Z,28.70
2022-08-25T23:13:34.774Z,26.40
2022-08-25T23:16:42.223Z,24.80
2022-08-25T23:19:44.122Z,23.40
2022-08-25T23:22:46.038Z,21.20
2022-08-25T23:25:52.853Z,24.40
2022-08-25T23:28:54.565Z,26.70
2022-08-25T23:31:57.698Z,29.60
2022-08-25T23:34:59.614Z,24.30
2022-08-25T23:38:02.008Z,30.00
2022-08-25T23:41:08.337Z,33.10
2022-08-25T23:44:11.578Z,29.30
2022-08-25T23:47:14.207Z,30.20
2022-08-25T23:50:16.099Z,31.60
2022-08-25T23:53:21.625Z,27.20
2022-08-25T23:56:24.293Z,25.70
2022-08-25T23:59:26.586Z,24.10
